Archival Weather

Chicago O'Hare International

Chicago, Illinois (KORD)

Report from: Tuesday, September 19, 2023 9:51 AM CDT
Current time: Saturday, September 30, 2023 9:30 PM CDT

Current weather
Weather history
Weather forecast

Present weatherLight rain
Temperature15.0°C (59.0°F)
Dew point12.8°C (55.0°F)
Winds 5 kts (2.6 m/s, 5.8 mph) South (190°)
Visibility10 mi. (16.1 km)
Clouds Ceiling: Overcast 7,500 ft. (2,286 m)
Altimeter30.05 in.Hg (1018 mB)
Precipitiation0.06 in. (2 mm)
Precip last 3 hours0.11 in. (3 mm)
Relative humidity87 %
Density altitude56 ft. (17 m)
Sea-level pressure101.8 kPa (1018 mB, 30.05 in.Hg)
Remarks Automated weather observing station with precipitation discriminator
Pressure rising more slowly
Flight conditions Visual Meteorological Conditions
Raw dataKORD 191451Z 19005KT 10SM -RA OVC075 15/13 A3005 RMK AO2 SLP177 P0006 60011 T01500128 51010
An error has occurred. This application may no longer respond until reloaded. Reload 🗙